Forside
METAR-TAF:

METAR-TAF

Lufthavne :

Webster City Municipal Airport

Webster City, Iowa, USA

Breddekreds: 42-26N, længdekreds: 093-52W, højde: 342 m

Aktuelle vejr

Denne rapport blev lavet for 23 minutter siden, kl. 20:35 UTC
Vind 8 kt fra vest
Temperatur 18°C
Fugtighed 26%
Tryk 1019 hPa
Sigt: 16.1 km
Spredte skyer i en højde af 8000 ft

METAR: KEBS 052035Z AUTO 26008KT 10SM SCT080 18/M02 A3008 RMK AO2

Tid: 15:58 (20:58 UTC)


TAF: fraværende

Vejrobservationer og prognoser fra mere end 4000 lufthavne (METAR og TAF).

De gule og røde prikker repræsenterer de meteorologiske stationer.

Flyt musen over at se navnet på stationen.

Så klik over at se vejr observationer og prognoser.

At skifte det kort: Klik på de grønne knapper med et sort kors for at zoome ind; på den grønne knap med en bindestreg for at zoome ud; eller på de grønne pile for tilstødende kort.


METAR-TAF: